Time,TemperatureF,DewpointF,PressureIn,WindDirection,WindDirectionDegrees,WindSpeedMPH,WindSpeedGustMPH,Humidity,HourlyPrecipIn,Conditions,Clouds,dailyrainin,SoftwareType,DateUTC
2013-03-31 00:00:00,52.0,48.6,30.03,NNE,22,1.1,-999.0,88,-99.99,,,0.00,Acu-Link.com,2013-03-31 04:00:00,
2013-03-31 00:31:00,52.2,49.1,30.03,South,180,1.7,-999.0,89,-99.99,,,0.00,Acu-Link.com,2013-03-31 04:31:00,
2013-03-31 01:02:00,52.2,48.8,30.02,ESE,112,0.0,-999.0,88,-99.99,,,0.00,Acu-Link.com,2013-03-31 05:02:00,
2013-03-31 01:17:00,52.2,49.4,30.02,WNW,292,1.1,-999.0,90,-99.99,,,0.00,Acu-Link.com,2013-03-31 05:17:00,
2013-03-31 01:32:00,52.0,49.2,30.01,ENE,67,0.0,-999.0,90,-99.99,,,0.00,Acu-Link.com,2013-03-31 05:32:00,
2013-03-31 01:47:00,51.4,48.9,30.00,NNW,337,0.0,-999.0,91,-99.99,,,0.00,Acu-Link.com,2013-03-31 05:47:00,
2013-03-31 02:03:00,51.3,49.1,30.00,NE,45,0.0,-999.0,92,-99.99,,,0.00,Acu-Link.com,2013-03-31 06:03:00,
2013-03-31 02:18:00,51.3,49.3,30.00,ESE,112,1.1,-999.0,93,-99.99,,,0.00,Acu-Link.com,2013-03-31 06:18:00,
2013-03-31 02:33:00,51.4,49.2,29.99,ESE,112,0.0,-999.0,92,-99.99,,,0.00,Acu-Link.com,2013-03-31 06:33:00,
2013-03-31 02:48:00,51.4,49.2,29.99,NNW,337,2.7,-999.0,92,-99.99,,,0.00,Acu-Link.com,2013-03-31 06:48:00,
2013-03-31 03:04:00,51.6,49.1,29.98,East,90,1.1,-999.0,91,-99.99,,,0.00,Acu-Link.com,2013-03-31 07:04:00,
2013-03-31 03:19:00,51.1,48.6,29.98,NW,315,0.0,-999.0,91,-99.99,,,0.00,Acu-Link.com,2013-03-31 07:19:00,
2013-03-31 03:35:00,50.9,48.4,29.97,SE,135,2.2,-999.0,91,-99.99,,,0.00,Acu-Link.com,2013-03-31 07:35:00,
2013-03-31 03:50:00,50.7,48.2,29.96,South,180,1.7,-999.0,91,-99.99,,,0.00,Acu-Link.com,2013-03-31 07:50:00,
2013-03-31 04:05:00,50.5,48.0,29.95,ENE,67,0.0,-999.0,91,-99.99,,,0.00,Acu-Link.com,2013-03-31 08:05:00,
2013-03-31 04:20:00,50.4,47.9,29.95,SW,225,0.0,-999.0,91,-99.99,,,0.00,Acu-Link.com,2013-03-31 08:20:00,
2013-03-31 04:35:00,50.2,47.7,29.94,South,180,0.0,-999.0,91,-99.99,,,0.00,Acu-Link.com,2013-03-31 08:35:00,
2013-03-31 04:51:00,50.0,47.8,29.93,ESE,112,1.1,-999.0,92,-99.99,,,0.00,Acu-Link.com,2013-03-31 08:51:00,
2013-03-31 05:21:00,50.0,47.2,29.92,NNW,337,0.0,-999.0,90,-99.99,,,0.00,Acu-Link.com,2013-03-31 09:21:00,
2013-03-31 05:36:00,50.4,47.6,29.91,NW,315,0.0,-999.0,90,-99.99,,,0.00,Acu-Link.com,2013-03-31 09:36:00,
2013-03-31 05:51:00,50.4,47.3,29.92,WNW,292,1.7,-999.0,89,-99.99,,,0.00,Acu-Link.com,2013-03-31 09:51:00,
2013-03-31 06:07:00,50.5,48.0,29.93,ESE,112,1.7,-999.0,91,-99.99,,,0.00,Acu-Link.com,2013-03-31 10:07:00,
2013-03-31 06:22:00,49.3,48.8,29.94,NNW,337,1.1,-999.0,98,-99.99,,,0.02,Acu-Link.com,2013-03-31 10:22:00,
2013-03-31 06:37:00,48.6,48.1,29.94,WNW,292,0.0,-999.0,98,-99.99,,,0.06,Acu-Link.com,2013-03-31 10:37:00,
2013-03-31 06:52:00,48.2,47.7,29.94,WNW,292,2.2,-999.0,98,-99.99,,,0.14,Acu-Link.com,2013-03-31 10:52:00,
2013-03-31 07:08:00,48.0,47.5,29.94,NW,315,1.1,-999.0,98,-99.99,,,0.17,Acu-Link.com,2013-03-31 11:08:00,
2013-03-31 07:23:00,47.8,47.3,29.92,ESE,112,1.1,-999.0,98,-99.99,,,0.20,Acu-Link.com,2013-03-31 11:23:00,
2013-03-31 07:38:00,47.8,47.3,29.91,SSE,157,1.1,-999.0,98,-99.99,,,0.23,Acu-Link.com,2013-03-31 11:38:00,
2013-03-31 07:54:00,47.8,47.3,29.90,ESE,112,1.7,-999.0,98,-99.99,,,0.27,Acu-Link.com,2013-03-31 11:54:00,
2013-03-31 08:09:00,48.0,47.5,29.88,West,270,1.7,-999.0,98,-99.99,,,0.30,Acu-Link.com,2013-03-31 12:09:00,
2013-03-31 08:24:00,48.4,47.9,29.90,WNW,292,2.2,-999.0,98,-99.99,,,0.32,Acu-Link.com,2013-03-31 12:24:00,
2013-03-31 08:39:00,48.7,48.2,29.90,SE,135,0.0,-999.0,98,-99.99,,,0.34,Acu-Link.com,2013-03-31 12:39:00,
2013-03-31 08:54:00,48.9,48.4,29.89,ESE,112,0.0,-999.0,98,-99.99,,,0.37,Acu-Link.com,2013-03-31 12:54:00,
2013-03-31 09:10:00,49.3,48.8,29.88,SE,135,1.7,-999.0,98,-99.99,,,0.41,Acu-Link.com,2013-03-31 13:10:00,
2013-03-31 09:25:00,49.8,49.3,29.88,WSW,247,1.7,-999.0,98,-99.99,,,0.42,Acu-Link.com,2013-03-31 13:25:00,
2013-03-31 09:40:00,50.7,50.2,29.87,ENE,67,2.7,-999.0,98,-99.99,,,0.42,Acu-Link.com,2013-03-31 13:40:00,
2013-03-31 09:56:00,52.0,51.5,29.87,NE,45,1.1,-999.0,98,-99.99,,,0.42,Acu-Link.com,2013-03-31 13:56:00,
2013-03-31 10:26:00,54.5,53.9,29.86,West,270,1.7,-999.0,98,-99.99,,,0.42,Acu-Link.com,2013-03-31 14:26:00,
2013-03-31 10:57:00,57.4,56.8,29.84,WNW,292,4.2,-999.0,98,-99.99,,,0.42,Acu-Link.com,2013-03-31 14:57:00,
2013-03-31 11:12:00,59.2,58.6,29.84,WSW,247,2.7,-999.0,98,-99.99,,,0.42,Acu-Link.com,2013-03-31 15:12:00,
2013-03-31 11:43:00,59.5,58.9,29.84,West,270,2.2,-999.0,98,-99.99,,,0.42,Acu-Link.com,2013-03-31 15:43:00,
2013-03-31 11:58:00,60.1,59.5,29.84,NNE,22,3.7,-999.0,98,-99.99,,,0.42,Acu-Link.com,2013-03-31 15:58:00,
2013-03-31 12:13:00,61.9,60.2,29.83,NW,315,3.2,-999.0,94,-99.99,,,0.42,Acu-Link.com,2013-03-31 16:13:00,
2013-03-31 12:28:00,61.5,59.8,29.83,West,270,2.2,-999.0,94,-99.99,,,0.42,Acu-Link.com,2013-03-31 16:28:00,
2013-03-31 12:43:00,63.3,60.9,29.81,ESE,112,1.7,-999.0,92,-99.99,,,0.42,Acu-Link.com,2013-03-31 16:43:00,
2013-03-31 12:59:00,63.1,60.1,29.81,West,270,5.3,-999.0,90,-99.99,,,0.42,Acu-Link.com,2013-03-31 16:59:00,
2013-03-31 13:14:00,64.0,61.0,29.80,WSW,247,6.8,-999.0,90,-99.99,,,0.42,Acu-Link.com,2013-03-31 17:14:00,
2013-03-31 13:29:00,65.5,60.5,29.79,SSE,157,6.3,-999.0,84,-99.99,,,0.42,Acu-Link.com,2013-03-31 17:29:00,
2013-03-31 13:44:00,65.8,60.5,29.78,West,270,4.2,-999.0,83,-99.99,,,0.42,Acu-Link.com,2013-03-31 17:44:00,
2013-03-31 13:59:00,65.8,60.1,29.79,SW,225,3.2,-999.0,82,-99.99,,,0.42,Acu-Link.com,2013-03-31 17:59:00,
2013-03-31 14:15:00,64.6,60.0,29.78,SW,225,3.7,-999.0,85,-99.99,,,0.42,Acu-Link.com,2013-03-31 18:15:00,
2013-03-31 14:30:00,65.1,59.8,29.77,WSW,247,4.2,-999.0,83,-99.99,,,0.42,Acu-Link.com,2013-03-31 18:30:00,
2013-03-31 14:45:00,67.1,60.4,29.76,NW,315,3.2,-999.0,79,-99.99,,,0.42,Acu-Link.com,2013-03-31 18:45:00,
2013-03-31 15:01:00,66.6,60.2,29.75,West,270,4.2,-999.0,80,-99.99,,,0.42,Acu-Link.com,2013-03-31 19:01:00,
2013-03-31 15:31:00,66.7,61.4,29.75,SSE,157,2.2,-999.0,83,-99.99,,,0.42,Acu-Link.com,2013-03-31 19:31:00,
2013-03-31 15:47:00,68.2,61.4,29.75,WSW,247,4.2,-999.0,79,-99.99,,,0.42,Acu-Link.com,2013-03-31 19:47:00,
2013-03-31 16:02:00,67.3,61.3,29.75,West,270,4.7,-999.0,81,-99.99,,,0.42,Acu-Link.com,2013-03-31 20:02:00,
2013-03-31 16:17:00,67.6,61.2,29.75,WNW,292,6.8,-999.0,80,-99.99,,,0.42,Acu-Link.com,2013-03-31 20:17:00,
2013-03-31 16:32:00,67.5,60.8,29.76,SSE,157,5.8,-999.0,79,-99.99,,,0.42,Acu-Link.com,2013-03-31 20:32:00,
2013-03-31 16:48:00,68.4,60.9,29.76,NW,315,2.2,-999.0,77,-99.99,,,0.42,Acu-Link.com,2013-03-31 20:48:00,
2013-03-31 17:03:00,68.2,60.7,29.74,West,270,1.1,-999.0,77,-99.99,,,0.42,Acu-Link.com,2013-03-31 21:03:00,
2013-03-31 17:18:00,68.7,60.4,29.74,NW,315,2.2,-999.0,75,-99.99,,,0.42,Acu-Link.com,2013-03-31 21:18:00,
2013-03-31 17:33:00,68.0,59.4,29.73,WSW,247,2.2,-999.0,74,-99.99,,,0.42,Acu-Link.com,2013-03-31 21:33:00,
2013-03-31 17:48:00,68.7,60.1,29.73,SSW,202,3.2,-999.0,74,-99.99,,,0.42,Acu-Link.com,2013-03-31 21:48:00,
2013-03-31 18:03:00,68.2,60.0,29.73,SW,225,3.2,-999.0,75,-99.99,,,0.42,Acu-Link.com,2013-03-31 22:03:00,
2013-03-31 18:19:00,67.1,61.1,29.73,WNW,292,3.2,-999.0,81,-99.99,,,0.42,Acu-Link.com,2013-03-31 22:19:00,
2013-03-31 18:34:00,66.2,60.5,29.74,SSW,202,2.2,-999.0,82,-99.99,,,0.42,Acu-Link.com,2013-03-31 22:34:00,
2013-03-31 18:49:00,65.8,60.8,29.73,ESE,112,0.0,-999.0,84,-99.99,,,0.42,Acu-Link.com,2013-03-31 22:49:00,
2013-03-31 19:05:00,64.9,60.6,29.74,South,180,2.2,-999.0,86,-99.99,,,0.42,Acu-Link.com,2013-03-31 23:05:00,
2013-03-31 19:20:00,63.9,60.3,29.74,East,90,0.0,-999.0,88,-99.99,,,0.42,Acu-Link.com,2013-03-31 23:20:00,
2013-03-31 19:35:00,63.0,60.3,29.73,SE,135,0.0,-999.0,91,-99.99,,,0.42,Acu-Link.com,2013-03-31 23:35:00,
2013-03-31 19:51:00,62.2,60.7,29.73,WNW,292,0.0,-999.0,95,-99.99,,,0.42,Acu-Link.com,2013-03-31 23:51:00,
2013-03-31 20:06:00,62.1,61.5,29.75,SSW,202,1.7,-999.0,98,-99.99,,,0.42,Acu-Link.com,2013-04-01 00:06:00,
2013-03-31 20:36:00,57.7,57.1,29.77,WNW,292,7.3,-999.0,98,-99.99,,,0.54,Acu-Link.com,2013-04-01 00:36:00,
2013-03-31 20:51:00,56.5,55.9,29.78,NW,315,1.7,-999.0,98,-99.99,,,0.62,Acu-Link.com,2013-04-01 00:51:00,
2013-03-31 21:06:00,55.9,55.3,29.78,NW,315,2.2,-999.0,98,-99.99,,,0.74,Acu-Link.com,2013-04-01 01:06:00,
2013-03-31 21:22:00,55.6,55.0,29.77,South,180,0.0,-999.0,98,-99.99,,,0.79,Acu-Link.com,2013-04-01 01:22:00,
2013-03-31 21:37:00,55.4,54.8,29.77,NNE,22,0.0,-999.0,98,-99.99,,,0.80,Acu-Link.com,2013-04-01 01:37:00,
2013-03-31 21:52:00,55.2,54.6,29.77,South,180,0.0,-999.0,98,-99.99,,,0.80,Acu-Link.com,2013-04-01 01:52:00,
2013-03-31 22:08:00,55.2,54.6,29.77,SSE,157,0.0,-999.0,98,-99.99,,,0.80,Acu-Link.com,2013-04-01 02:08:00,
2013-03-31 22:23:00,55.0,54.4,29.77,West,270,0.0,-999.0,98,-99.99,,,0.80,Acu-Link.com,2013-04-01 02:23:00,
2013-03-31 22:38:00,55.0,54.4,29.77,South,180,0.0,-999.0,98,-99.99,,,0.80,Acu-Link.com,2013-04-01 02:38:00,
2013-03-31 22:54:00,55.2,54.6,29.77,West,270,0.0,-999.0,98,-99.99,,,0.80,Acu-Link.com,2013-04-01 02:54:00,
2013-03-31 23:09:00,55.2,54.6,29.77,South,180,0.0,-999.0,98,-99.99,,,0.80,Acu-Link.com,2013-04-01 03:09:00,
2013-03-31 23:24:00,55.0,54.4,29.77,SW,225,0.0,-999.0,98,-99.99,,,0.80,Acu-Link.com,2013-04-01 03:24:00,
2013-03-31 23:39:00,55.0,54.4,29.76,NW,315,0.0,-999.0,98,-99.99,,,0.80,Acu-Link.com,2013-04-01 03:39:00,
2013-03-31 23:55:00,54.9,54.3,29.76,West,270,0.0,-999.0,98,-99.99,,,0.80,Acu-Link.com,2013-04-01 03:55:00,